Time;durP1;ratioP1;P1;durP2;ratioP2;P2;SDS_P1;SDS_P2;PMS_P1;PMS_P2;Temp;Humidity;BMP_temperature;BMP_pressure;BME280_temperature;BME280_humidity;BME280_pressure;Samples;Min_cycle;Max_cycle;Signal;HPM_P1;HPM_P2
2022/10/16 00:00:10;;;;;;;19.07;11.63;;;;;;;9.01;100.00;95306.91;5107565;28;20207;-78
2022/10/16 00:02:38;;;;;;;30.30;15.73;;;;;;;9.12;100.00;95313.31;5107796;28;20200;-78
2022/10/16 00:05:06;;;;;;;29.77;15.33;;;;;;;9.16;100.00;95316.34;5106870;28;20207;-78
2022/10/16 00:07:33;;;;;;;35.97;17.00;;;;;;;9.18;100.00;95322.94;5108742;28;20647;-78
2022/10/16 00:09:59;;;;;;;32.77;16.30;;;;;;;9.23;100.00;95317.97;5110897;28;20211;-78
2022/10/16 00:12:26;;;;;;;25.60;14.80;;;;;;;9.25;100.00;95322.97;5110129;28;20227;-79
2022/10/16 00:14:53;;;;;;;24.80;13.87;;;;;;;9.22;100.00;95326.75;5108510;28;20215;-78
2022/10/16 00:17:20;;;;;;;32.30;18.23;;;;;;;9.21;100.00;95321.75;5109938;28;20231;-78
2022/10/16 00:19:48;;;;;;;43.97;20.53;;;;;;;9.12;100.00;95313.31;5110137;28;20287;-78
2022/10/16 00:22:15;;;;;;;22.17;12.73;;;;;;;9.18;100.00;95322.16;5109154;28;20230;-76
2022/10/16 00:24:42;;;;;;;21.27;11.90;;;;;;;9.10;100.00;95329.09;5109051;28;20614;-77
2022/10/16 00:27:09;;;;;;;19.63;11.77;;;;;;;8.96;100.00;95327.41;5109091;28;20693;-76
2022/10/16 00:29:35;;;;;;;17.90;11.83;;;;;;;8.88;100.00;95324.97;5109163;28;20615;-76
2022/10/16 00:32:02;;;;;;;26.77;14.00;;;;;;;8.87;100.00;95331.16;5108928;28;20227;-76
2022/10/16 00:34:29;;;;;;;31.37;16.67;;;;;;;8.98;100.00;95332.41;5107565;28;20207;-76
2022/10/16 00:36:57;;;;;;;27.17;13.77;;;;;;;9.01;100.00;95332.81;5109442;28;20204;-76
2022/10/16 00:39:24;;;;;;;20.53;11.67;;;;;;;9.08;100.00;95338.84;5109574;28;20200;-76
2022/10/16 00:41:51;;;;;;;27.93;13.90;;;;;;;8.88;100.00;95337.94;5108289;28;20223;-76
2022/10/16 00:44:45;;;;;;;20.87;11.57;;;;;;;8.55;100.00;95329.13;5109395;28;20613;-76
2022/10/16 00:47:19;;;;;;;25.00;13.67;;;;;;;8.15;100.00;95333.16;5108869;28;20227;-77
2022/10/16 00:49:48;;;;;;;25.73;14.80;;;;;;;8.18;100.00;95326.81;5107923;28;20741;-78
2022/10/16 00:52:18;;;;;;;27.03;10.77;;;;;;;8.09;100.00;95313.19;5107544;28;20298;-76
2022/10/16 00:54:47;;;;;;;20.67;10.80;;;;;;;8.11;100.00;95324.16;5108368;28;20204;-77
2022/10/16 00:57:14;;;;;;;27.80;10.57;;;;;;;8.10;100.00;95324.38;5108852;28;20206;-76
2022/10/16 00:59:42;;;;;;;19.80;10.97;;;;;;;8.22;100.00;95321.09;5107759;28;20200;-76
2022/10/16 01:02:15;;;;;;;22.17;13.00;;;;;;;8.32;100.00;95329.38;5109564;28;20207;-77
2022/10/16 01:04:45;;;;;;;23.70;12.83;;;;;;;8.39;100.00;95332.00;5109369;28;20306;-76
2022/10/16 01:07:24;;;;;;;24.00;13.17;;;;;;;8.59;100.00;95332.16;5110175;28;20207;-76
2022/10/16 01:10:01;;;;;;;21.53;11.37;;;;;;;8.69;100.00;95338.59;5110089;28;20204;-76
2022/10/16 01:12:37;;;;;;;18.93;11.00;;;;;;;8.71;100.00;95338.41;5107031;28;20226;-77
2022/10/16 01:15:11;;;;;;;16.77;10.03;;;;;;;8.63;100.00;95335.97;5109221;28;20674;-76
2022/10/16 01:17:43;;;;;;;17.63;10.80;;;;;;;8.68;100.00;95336.22;5106668;28;20207;-77
2022/10/16 01:20:18;;;;;;;15.27;10.10;;;;;;;8.69;100.00;95336.00;5108840;28;20208;-76
2022/10/16 01:23:00;;;;;;;17.13;9.90;;;;;;;8.70;100.00;95329.84;5108133;28;20200;-77
2022/10/16 01:25:38;;;;;;;17.70;9.60;;;;;;;8.75;100.00;95317.09;5109089;28;20282;-76
2022/10/16 01:28:10;;;;;;;17.70;9.17;;;;;;;8.63;100.00;95318.63;5106897;28;20284;-76
2022/10/16 01:30:38;;;;;;;15.00;9.30;;;;;;;8.57;100.00;95324.59;5108649;28;20202;-77
2022/10/16 01:33:15;;;;;;;17.37;9.63;;;;;;;8.55;100.00;95319.56;5108073;28;20231;-76
2022/10/16 01:35:46;;;;;;;13.97;9.47;;;;;;;8.55;100.00;95332.53;5107586;28;20202;-76
2022/10/16 01:38:17;;;;;;;17.37;9.93;;;;;;;8.54;100.00;95327.56;5107413;28;20204;-76
2022/10/16 01:40:50;;;;;;;18.53;10.00;;;;;;;8.40;100.00;95326.63;5105949;28;20228;-76
2022/10/16 01:43:22;;;;;;;15.33;10.27;;;;;;;8.03;100.00;95324.28;5108279;28;20211;-76
2022/10/16 01:45:49;;;;;;;18.60;10.50;;;;;;;7.75;100.00;95331.19;5107612;28;20223;-76
2022/10/16 01:48:20;;;;;;;15.77;10.23;;;;;;;7.86;100.00;95333.28;5106998;28;20753;-76
2022/10/16 01:50:55;;;;;;;18.50;10.70;;;;;;;7.87;100.00;95321.97;5106154;28;20204;-76
2022/10/16 01:53:24;;;;;;;18.97;11.77;;;;;;;8.06;100.00;95329.09;5106586;28;20319;-76
2022/10/16 01:55:53;;;;;;;19.87;11.40;;;;;;;8.18;100.00;95334.59;5106599;28;21022;-76
2022/10/16 01:58:23;;;;;;;21.27;10.70;;;;;;;8.26;100.00;95339.63;5106972;28;20215;-76
2022/10/16 02:00:50;;;;;;;25.57;13.97;;;;;;;8.31;100.00;95337.34;5107365;28;20755;-76
2022/10/16 02:03:20;;;;;;;38.87;19.83;;;;;;;8.33;100.00;95343.91;5107461;28;20856;-76
2022/10/16 02:05:51;;;;;;;40.97;18.73;;;;;;;8.35;100.00;95328.19;5107380;28;20680;-77
2022/10/16 02:08:18;;;;;;;31.77;17.73;;;;;;;8.42;100.00;95339.41;5107724;28;20204;-76
2022/10/16 02:10:45;;;;;;;36.90;19.10;;;;;;;8.42;100.00;95342.00;5106308;28;20551;-76
2022/10/16 02:13:16;;;;;;;42.97;19.10;;;;;;;8.39;100.00;95342.38;5107742;28;20227;-76
2022/10/16 02:15:45;;;;;;;38.93;19.07;;;;;;;8.35;100.00;95344.53;5106804;28;20207;-76
2022/10/16 02:18:12;;;;;;;39.37;19.27;;;;;;;8.36;100.00;95353.91;5104782;28;20196;-76
2022/10/16 02:20:49;;;;;;;34.70;18.23;;;;;;;8.39;100.00;95363.09;5107542;28;20195;-76
2022/10/16 02:23:24;;;;;;;39.97;17.97;;;;;;;8.42;100.00;95357.53;5105514;28;20198;-76
2022/10/16 02:25:53;;;;;;;40.83;19.60;;;;;;;8.33;100.00;95362.06;5104620;28;20203;-73
2022/10/16 02:28:25;;;;;;;37.03;19.50;;;;;;;8.30;100.00;95361.63;5106271;28;20912;-76
2022/10/16 02:30:59;;;;;;;33.90;18.83;;;;;;;8.31;100.00;95366.59;5106386;28;20660;-78
2022/10/16 02:33:28;;;;;;;48.33;21.93;;;;;;;8.33;100.00;95366.41;5104832;28;20216;-77
2022/10/16 02:35:55;;;;;;;47.00;25.70;;;;;;;8.32;100.00;95364.81;5107968;28;20238;-78
2022/10/16 02:38:24;;;;;;;49.50;24.10;;;;;;;8.27;100.00;95360.19;5107353;28;20215;-78
2022/10/16 02:40:51;;;;;;;42.10;22.10;;;;;;;8.24;100.00;95359.72;5107068;28;20255;-78
2022/10/16 02:43:18;;;;;;;41.43;22.93;;;;;;;8.32;100.00;95368.19;5107123;28;20235;-77
2022/10/16 02:45:45;;;;;;;38.33;20.97;;;;;;;7.86;100.00;95369.50;5107505;28;20271;-79
2022/10/16 02:48:14;;;;;;;42.40;19.97;;;;;;;7.44;100.00;95380.59;5108740;28;20227;-80
2022/10/16 02:50:41;;;;;;;38.47;20.90;;;;;;;7.32;100.00;95384.63;5107359;28;20222;-77
2022/10/16 02:53:08;;;;;;;39.57;22.33;;;;;;;7.39;100.00;95378.53;5106577;28;20228;-77
2022/10/16 02:55:35;;;;;;;42.57;22.50;;;;;;;7.51;100.00;95386.63;5107256;28;20663;-77
2022/10/16 02:58:02;;;;;;;42.97;22.77;;;;;;;7.59;100.00;95381.34;5104268;28;20655;-76
2022/10/16 03:00:29;;;;;;;44.77;23.90;;;;;;;7.66;100.00;95382.25;5107301;28;20204;-76
2022/10/16 03:02:55;;;;;;;44.17;24.60;;;;;;;7.78;100.00;95391.13;5107589;28;20204;-76
2022/10/16 03:05:24;;;;;;;54.43;26.60;;;;;;;7.83;100.00;95386.22;5107323;28;20631;-76
2022/10/16 03:07:52;;;;;;;42.37;24.60;;;;;;;7.94;100.00;95382.34;5106300;28;20956;-76
2022/10/16 03:10:19;;;;;;;40.27;22.90;;;;;;;8.06;100.00;95388.63;5106067;28;20206;-77
2022/10/16 03:12:46;;;;;;;42.23;23.67;;;;;;;8.07;100.00;95376.50;5105797;28;20228;-76
2022/10/16 03:15:13;;;;;;;39.23;24.37;;;;;;;8.15;100.00;95389.31;5106643;28;20196;-76
2022/10/16 03:17:39;;;;;;;45.00;25.53;;;;;;;8.14;100.00;95383.34;5107054;28;20199;-76
2022/10/16 03:20:07;;;;;;;52.73;27.53;;;;;;;8.13;100.00;95392.09;5105726;28;20208;-76
2022/10/16 03:22:35;;;;;;;49.40;26.40;;;;;;;8.06;100.00;95387.81;5107192;28;20204;-80
2022/10/16 03:25:03;;;;;;;52.37;28.30;;;;;;;8.13;100.00;95386.94;5104852;28;20207;-77
2022/10/16 03:27:29;;;;;;;51.37;27.50;;;;;;;8.07;100.00;95390.25;5107514;28;20651;-79
2022/10/16 03:29:56;;;;;;;48.97;26.97;;;;;;;8.08;100.00;95401.41;5108238;28;20207;-78
2022/10/16 03:32:24;;;;;;;41.93;25.17;;;;;;;8.11;100.00;95398.47;5107548;28;20960;-78
2022/10/16 03:34:52;;;;;;;46.30;25.07;;;;;;;8.08;100.00;95404.00;5106899;28;20208;-78
2022/10/16 03:37:19;;;;;;;47.93;26.00;;;;;;;8.12;100.00;95395.66;5107463;28;20215;-79
2022/10/16 03:39:47;;;;;;;48.63;26.63;;;;;;;8.06;100.00;95399.00;5104031;28;20244;-79
2022/10/16 03:42:14;;;;;;;47.30;24.80;;;;;;;8.13;100.00;95397.28;5109069;28;20211;-78
2022/10/16 03:44:41;;;;;;;35.87;21.93;;;;;;;7.71;100.00;95402.38;5111884;28;20208;-79
2022/10/16 03:47:08;;;;;;;39.27;23.03;;;;;;;7.21;100.00;95398.00;5112043;28;20256;-75
2022/10/16 03:49:34;;;;;;;43.50;24.60;;;;;;;6.90;100.00;95394.78;5109724;28;20591;-76
2022/10/16 03:52:01;;;;;;;40.20;24.07;;;;;;;6.94;100.00;95388.25;5110183;28;20208;-76
2022/10/16 03:54:28;;;;;;;40.87;22.83;;;;;;;7.06;100.00;95389.44;5108000;28;20207;-76
2022/10/16 03:56:56;;;;;;;34.67;20.63;;;;;;;7.17;100.00;95394.16;5110034;28;20285;-76
2022/10/16 03:59:23;;;;;;;37.67;19.73;;;;;;;7.29;100.00;95378.03;5110640;28;20212;-76
2022/10/16 04:01:50;;;;;;;29.83;17.30;;;;;;;7.37;100.00;95390.03;5108595;28;20211;-77
2022/10/16 04:04:16;;;;;;;26.23;16.03;;;;;;;7.43;100.00;95390.13;5110340;28;20192;-76
2022/10/16 04:06:43;;;;;;;27.47;16.53;;;;;;;7.49;100.00;95400.72;5109568;28;20212;-76
2022/10/16 04:09:10;;;;;;;30.30;16.87;;;;;;;7.50;100.00;95400.56;5109559;28;20667;-77
2022/10/16 04:11:37;;;;;;;29.50;18.70;;;;;;;7.57;100.00;95393.66;5109445;28;20281;-78
2022/10/16 04:14:05;;;;;;;29.33;17.30;;;;;;;7.62;100.00;95396.50;5109748;28;20569;-77
2022/10/16 04:16:32;;;;;;;28.07;18.40;;;;;;;7.67;100.00;95391.63;5108420;28;20208;-77
2022/10/16 04:18:59;;;;;;;31.00;18.43;;;;;;;7.69;100.00;95396.59;5109792;28;20231;-76
2022/10/16 04:21:26;;;;;;;33.40;19.43;;;;;;;7.68;100.00;95388.03;5109655;28;20204;-77
2022/10/16 04:23:53;;;;;;;34.87;20.37;;;;;;;7.72;100.00;95402.22;5109061;28;20204;-76
2022/10/16 04:26:19;;;;;;;35.90;20.70;;;;;;;7.73;100.00;95390.09;5108312;28;20212;-76
2022/10/16 04:28:46;;;;;;;42.03;24.77;;;;;;;7.80;100.00;95407.28;5108544;28;20203;-75
2022/10/16 04:31:14;;;;;;;47.67;26.50;;;;;;;7.72;100.00;95406.59;5109191;28;20200;-76
2022/10/16 04:33:43;;;;;;;47.70;28.77;;;;;;;7.57;100.00;95393.66;5108307;28;20614;-76
2022/10/16 04:36:10;;;;;;;52.93;30.70;;;;;;;7.73;100.00;95411.59;5109239;28;20272;-75
2022/10/16 04:38:39;;;;;;;50.30;30.30;;;;;;;7.42;100.00;95400.63;5108479;28;20681;-76
2022/10/16 04:41:06;;;;;;;52.00;31.07;;;;;;;6.98;100.00;95410.19;5109086;28;20255;-75
2022/10/16 04:43:33;;;;;;;60.83;35.63;;;;;;;6.63;100.00;95399.53;5106415;27;20561;-75
2022/10/16 04:46:00;;;;;;;70.17;38.63;;;;;;;6.72;100.00;95406.22;5106208;28;20269;-75
2022/10/16 04:48:28;;;;;;;67.83;39.07;;;;;;;6.73;100.00;95407.81;5105110;28;20852;-76
2022/10/16 04:50:55;;;;;;;71.73;39.43;;;;;;;6.85;100.00;95411.59;5106327;28;20222;-76
2022/10/16 04:53:22;;;;;;;68.37;40.23;;;;;;;6.91;100.00;95417.03;5108055;28;20232;-76
2022/10/16 04:55:49;;;;;;;67.00;41.23;;;;;;;7.04;100.00;95419.81;5108115;28;20212;-77
2022/10/16 04:58:15;;;;;;;75.87;44.27;;;;;;;7.18;100.00;95425.00;5106936;28;20200;-77
2022/10/16 05:00:42;;;;;;;93.90;49.90;;;;;;;7.17;100.00;95440.66;5109398;28;20212;-78
2022/10/16 05:03:09;;;;;;;87.03;50.00;;;;;;;7.27;100.00;95433.47;5109774;28;20199;-78
2022/10/16 05:05:37;;;;;;;91.40;48.90;;;;;;;7.31;100.00;95429.53;5109040;28;20231;-77
2022/10/16 05:08:04;;;;;;;78.93;46.30;;;;;;;7.36;100.00;95434.97;5107463;28;20214;-77
2022/10/16 05:10:31;;;;;;;80.67;44.90;;;;;;;7.45;100.00;95439.06;5108339;28;20298;-76
2022/10/16 05:12:58;;;;;;;79.73;44.43;;;;;;;7.52;100.00;95439.16;5108895;28;20816;-77
2022/10/16 05:15:25;;;;;;;86.60;45.97;;;;;;;7.57;100.00;95442.00;5104997;28;20201;-76
2022/10/16 05:17:54;;;;;;;87.13;46.93;;;;;;;7.58;100.00;95444.44;5108450;28;20400;-77
2022/10/16 05:20:21;;;;;;;71.37;43.10;;;;;;;7.58;100.00;95444.44;5108609;28;20398;-77
2022/10/16 05:22:49;;;;;;;56.97;31.60;;;;;;;7.59;100.00;95447.81;5107662;28;20765;-76
2022/10/16 05:25:16;;;;;;;71.23;37.83;;;;;;;7.57;100.00;95447.19;5108112;28;20211;-76
2022/10/16 05:27:43;;;;;;;58.77;32.83;;;;;;;7.68;100.00;95451.88;5108140;28;20246;-78
2022/10/16 05:30:10;;;;;;;43.97;21.57;;;;;;;7.58;100.00;95451.38;5108309;28;20200;-78
2022/10/16 05:32:37;;;;;;;31.40;18.53;;;;;;;7.50;100.00;95456.66;5108508;28;20203;-77
2022/10/16 05:35:05;;;;;;;32.47;19.00;;;;;;;7.41;100.00;95456.75;5108716;28;20217;-77
2022/10/16 05:37:31;;;;;;;39.00;19.97;;;;;;;7.29;100.00;95459.94;5108682;28;20261;-77
2022/10/16 05:40:00;;;;;;;34.63;19.77;;;;;;;7.05;100.00;95450.63;5105441;28;20244;-78
2022/10/16 05:42:26;;;;;;;44.40;26.97;;;;;;;6.77;100.00;95449.63;5104285;28;20213;-79
2022/10/16 05:44:53;;;;;;;46.90;27.20;;;;;;;6.84;100.00;95448.72;5105532;28;20199;-78
2022/10/16 05:47:21;;;;;;;43.80;25.10;;;;;;;6.98;100.00;95451.53;5101840;28;20192;-79
2022/10/16 05:49:48;;;;;;;39.97;23.37;;;;;;;7.12;100.00;95456.72;5104630;28;20306;-78
2022/10/16 05:52:15;;;;;;;36.93;21.90;;;;;;;7.28;100.00;95461.72;5106210;28;20219;-78
2022/10/16 05:54:44;;;;;;;37.53;21.80;;;;;;;7.38;100.00;95464.84;5102117;28;21555;-78
2022/10/16 05:57:12;;;;;;;36.77;21.20;;;;;;;7.53;100.00;95475.22;5102357;28;20655;-77
2022/10/16 05:59:39;;;;;;;36.63;21.07;;;;;;;7.64;100.00;95481.72;5106096;28;20192;-77
2022/10/16 06:02:06;;;;;;;35.93;19.77;;;;;;;7.72;100.00;95481.59;5105424;28;20550;-78
2022/10/16 06:04:33;;;;;;;35.53;20.50;;;;;;;7.85;100.00;95486.97;5104802;28;20544;-79
2022/10/16 06:07:01;;;;;;;34.53;20.67;;;;;;;7.94;100.00;95484.06;5104186;28;20199;-79
2022/10/16 06:09:28;;;;;;;34.93;21.77;;;;;;;8.06;100.00;95496.53;5103006;28;20274;-78
2022/10/16 06:11:54;;;;;;;35.07;21.60;;;;;;;8.05;100.00;95479.44;5103863;28;20244;-78
2022/10/16 06:14:23;;;;;;;37.33;23.70;;;;;;;8.21;100.00;95492.94;5104438;28;20223;-79
2022/10/16 06:16:49;;;;;;;41.33;23.93;;;;;;;8.23;100.00;95498.75;5101954;28;20211;-76
2022/10/16 06:19:17;;;;;;;42.47;22.57;;;;;;;8.29;100.00;95505.81;5101629;28;20193;-78
2022/10/16 06:21:44;;;;;;;37.77;21.57;;;;;;;8.32;100.00;95502.06;5101356;28;20623;-78
2022/10/16 06:24:11;;;;;;;36.60;22.40;;;;;;;8.33;100.00;95495.91;5103453;28;20193;-76
2022/10/16 06:26:38;;;;;;;35.87;20.57;;;;;;;8.35;100.00;95494.72;5102725;28;20203;-74
2022/10/16 06:29:05;;;;;;;37.93;21.73;;;;;;;8.44;100.00;95498.81;5106585;28;20290;-73
2022/10/16 06:31:34;;;;;;;34.90;21.17;;;;;;;8.55;100.00;95508.69;5107619;28;20207;-73
2022/10/16 06:34:01;;;;;;;38.97;20.93;;;;;;;8.34;100.00;95515.66;5104497;28;20941;-73
2022/10/16 06:36:30;;;;;;;37.87;20.67;;;;;;;8.02;100.00;95514.25;5107910;28;20257;-73
2022/10/16 06:38:57;;;;;;;43.30;22.33;;;;;;;7.99;100.00;95510.22;5107720;28;20203;-72
2022/10/16 06:41:24;;;;;;;44.33;21.43;;;;;;;8.16;100.00;95520.38;5107340;28;20760;-73
2022/10/16 06:43:52;;;;;;;29.27;16.60;;;;;;;8.25;100.00;95517.50;5107114;28;20590;-72
2022/10/16 06:46:20;;;;;;;25.40;15.47;;;;;;;8.40;100.00;95526.06;5107241;28;20655;-73
2022/10/16 06:48:49;;;;;;;21.90;14.20;;;;;;;8.54;100.00;95525.22;5107372;28;20208;-74
2022/10/16 06:51:17;;;;;;;33.93;15.47;;;;;;;8.76;100.00;95533.00;5107533;28;20200;-73
2022/10/16 06:53:46;;;;;;;24.60;14.53;;;;;;;8.88;100.00;95541.91;5107085;28;20234;-73
2022/10/16 06:56:16;;;;;;;24.20;14.47;;;;;;;8.95;100.00;95540.97;5106866;28;20208;-73
2022/10/16 06:58:43;;;;;;;30.63;14.50;;;;;;;9.03;100.00;95540.06;5107742;28;20203;-73
2022/10/16 07:01:11;;;;;;;25.53;14.80;;;;;;;9.06;100.00;95535.28;5107607;28;20204;-73
2022/10/16 07:03:39;;;;;;;21.03;13.67;;;;;;;9.16;100.00;95550.53;5107401;28;20257;-73
2022/10/16 07:06:10;;;;;;;29.67;13.67;;;;;;;9.23;100.00;95535.84;5107600;28;20263;-73
2022/10/16 07:08:39;;;;;;;22.40;14.00;;;;;;;9.26;100.00;95539.84;5107039;28;20215;-72
2022/10/16 07:11:07;;;;;;;21.33;13.47;;;;;;;9.36;100.00;95542.91;5107181;28;20249;-76
2022/10/16 07:13:34;;;;;;;23.47;13.50;;;;;;;9.42;100.00;95542.16;5107407;28;20239;-75
2022/10/16 07:16:05;;;;;;;25.30;13.60;;;;;;;9.54;100.00;95543.25;5108382;28;20200;-76
2022/10/16 07:18:32;;;;;;;20.77;14.30;;;;;;;9.58;100.00;95540.06;5112015;28;20672;-76
2022/10/16 07:21:04;;;;;;;24.77;13.17;;;;;;;9.60;100.00;95537.28;5104799;28;20206;-75
2022/10/16 07:23:32;;;;;;;22.57;13.10;;;;;;;9.61;100.00;95537.09;5111585;28;20200;-71
2022/10/16 07:25:59;;;;;;;22.30;13.40;;;;;;;9.63;100.00;95532.53;5107422;28;20203;-72
2022/10/16 07:28:26;;;;;;;22.07;13.40;;;;;;;9.81;100.00;95546.81;5107317;28;20207;-74
2022/10/16 07:30:53;;;;;;;21.83;13.33;;;;;;;9.86;100.00;95547.84;5110813;28;21174;-72
2022/10/16 07:33:19;;;;;;;22.50;13.40;;;;;;;9.90;100.00;95556.06;5111005;28;20226;-73
2022/10/16 07:35:51;;;;;;;22.80;13.40;;;;;;;9.88;100.00;95540.66;5110711;28;20188;-73
2022/10/16 07:38:18;;;;;;;19.43;12.80;;;;;;;9.85;100.00;95548.03;5110301;28;20912;-72
2022/10/16 07:40:46;;;;;;;23.63;15.07;;;;;;;9.65;100.00;95548.72;5110139;28;20594;-73
2022/10/16 07:43:13;;;;;;;23.17;14.43;;;;;;;9.40;100.00;95547.53;5111071;28;20273;-72
2022/10/16 07:45:48;;;;;;;22.00;14.73;;;;;;;9.57;100.00;95543.66;5110835;28;20281;-74
2022/10/16 07:48:15;;;;;;;28.00;14.67;;;;;;;9.70;100.00;95546.34;5110535;28;20634;-72
2022/10/16 07:50:42;;;;;;;24.27;14.70;;;;;;;9.88;100.00;95552.84;5110763;28;20204;-73
2022/10/16 07:53:09;;;;;;;22.33;14.93;;;;;;;10.09;100.00;95555.34;5110211;28;20212;-73
2022/10/16 07:55:36;;;;;;;25.63;14.53;;;;;;;10.24;100.00;95556.84;5109596;28;20288;-73
2022/10/16 07:58:04;;;;;;;25.43;14.93;;;;;;;10.39;100.00;95556.69;5110476;28;20207;-73
2022/10/16 08:00:31;;;;;;;25.33;14.20;;;;;;;10.53;100.00;95565.38;5110859;28;20203;-78
2022/10/16 08:02:59;;;;;;;24.27;13.97;;;;;;;10.66;100.00;95565.41;5111852;28;20257;-77
2022/10/16 08:05:27;;;;;;;24.40;14.37;;;;;;;10.73;100.00;95561.84;5111335;28;20196;-74
2022/10/16 08:07:54;;;;;;;25.57;14.10;;;;;;;10.80;100.00;95562.63;5110438;28;20257;-75
2022/10/16 08:10:23;;;;;;;22.20;14.63;;;;;;;10.89;99.58;95571.06;5110240;28;20418;-74
2022/10/16 08:12:50;;;;;;;21.23;14.53;;;;;;;11.06;98.65;95563.69;5110374;28;20226;-74
2022/10/16 08:15:19;;;;;;;23.70;14.40;;;;;;;11.18;98.73;95560.31;5110805;28;20224;-74
2022/10/16 08:17:46;;;;;;;30.33;15.03;;;;;;;11.34;98.29;95557.31;5110102;28;20650;-74
2022/10/16 08:20:13;;;;;;;26.13;14.97;;;;;;;11.57;96.45;95559.50;5110161;28;20880;-74
2022/10/16 08:22:39;;;;;;;23.97;14.77;;;;;;;11.73;95.74;95556.53;5110559;28;20208;-74
2022/10/16 08:25:07;;;;;;;21.20;13.87;;;;;;;11.91;95.42;95561.09;5109911;28;20203;-74
2022/10/16 08:27:33;;;;;;;22.87;13.27;;;;;;;12.13;95.38;95566.84;5108399;28;20204;-74
2022/10/16 08:30:00;;;;;;;18.27;12.03;;;;;;;12.18;93.07;95557.41;5110907;28;20283;-73
2022/10/16 08:32:29;;;;;;;21.07;11.57;;;;;;;12.18;92.79;95551.44;5110434;28;20215;-74
2022/10/16 08:34:55;;;;;;;16.67;11.10;;;;;;;12.17;93.83;95545.41;5110451;28;20247;-74
2022/10/16 08:37:22;;;;;;;16.97;11.67;;;;;;;12.65;92.60;95560.66;5110555;28;20342;-74
2022/10/16 08:39:49;;;;;;;16.20;9.00;;;;;;;13.09;90.66;95552.81;5108892;28;20242;-74
2022/10/16 08:42:33;;;;;;;14.10;8.80;;;;;;;13.68;87.60;95554.19;5109645;28;20215;-75
2022/10/16 08:45:32;;;;;;;16.63;9.73;;;;;;;14.26;84.96;95557.22;5109796;28;20204;-74
2022/10/16 08:48:13;;;;;;;11.17;8.00;;;;;;;14.76;81.69;95558.66;5094008;28;20219;-74
2022/10/16 08:50:41;;;;;;;16.03;8.43;;;;;;;15.18;79.78;95564.72;5108517;28;20666;-76
2022/10/16 08:53:15;;;;;;;12.53;8.03;;;;;;;15.68;78.61;95567.78;5109613;28;20199;-73
2022/10/16 08:55:44;;;;;;;12.90;8.00;;;;;;;15.66;77.02;95568.03;5108988;28;20215;-74
2022/10/16 08:58:14;;;;;;;11.20;7.03;;;;;;;15.50;76.61;95566.06;5109692;28;20204;-75
2022/10/16 09:00:42;;;;;;;9.47;7.27;;;;;;;15.19;78.25;95571.53;5108006;28;20290;-74
2022/10/16 09:03:18;;;;;;;10.37;7.10;;;;;;;15.68;76.91;95575.66;5109530;28;20200;-74
2022/10/16 09:05:59;;;;;;;13.63;6.97;;;;;;;16.32;74.30;95575.53;5109533;28;20292;-73
2022/10/16 09:08:35;;;;;;;8.50;6.57;;;;;;;16.99;71.70;95581.91;5105920;28;20480;-73
2022/10/16 09:11:10;;;;;;;8.30;5.60;;;;;;;17.48;66.81;95583.03;5108942;28;20199;-74
2022/10/16 09:13:47;;;;;;;7.53;4.87;;;;;;;17.96;64.48;95576.44;5109677;28;20211;-74
2022/10/16 09:16:20;;;;;;;10.43;5.47;;;;;;;18.45;62.63;95577.38;5108698;28;20207;-79
2022/10/16 09:18:55;;;;;;;7.53;4.93;;;;;;;18.87;60.65;95577.69;5109031;28;20212;-72
2022/10/16 09:21:26;;;;;;;5.93;4.90;;;;;;;19.22;58.92;95576.19;5109500;28;20751;-73
2022/10/16 09:23:54;;;;;;;6.70;4.23;;;;;;;19.45;58.24;95571.72;5109139;28;20619;-74
2022/10/16 09:26:21;;;;;;;8.27;5.03;;;;;;;19.86;57.08;95576.25;5108854;28;20227;-80
2022/10/16 09:28:48;;;;;;;8.35;4.82;;;;;;;20.23;55.66;95579.66;5109193;28;20675;-76
2022/10/16 09:31:19;;;;;;;5.93;4.40;;;;;;;20.63;54.56;95589.72;5108071;28;20200;-76
2022/10/16 09:33:52;;;;;;;5.07;4.22;;;;;;;21.01;53.67;95593.03;5108104;28;21150;-76
2022/10/16 09:36:21;;;;;;;11.98;5.38;;;;;;;21.10;52.10;95592.28;5105515;28;20211;-82
2022/10/16 09:38:49;;;;;;;9.40;4.30;;;;;;;20.26;52.70;95588.94;5110522;28;20214;-79
2022/10/16 09:41:19;;;;;;;8.32;4.63;;;;;;;19.11;56.39;95585.03;5109197;28;20323;-78
2022/10/16 09:43:53;;;;;;;7.45;4.70;;;;;;;18.76;58.20;95570.69;5109655;28;20211;-77
2022/10/16 09:46:27;;;;;;;7.43;4.88;;;;;;;19.50;56.38;95582.28;5112238;28;20245;-76
2022/10/16 09:48:58;;;;;;;6.95;4.40;;;;;;;20.11;54.22;95578.28;5108526;28;20227;-79
2022/10/16 09:51:26;;;;;;;6.00;4.30;;;;;;;20.84;52.87;95572.06;5104554;28;20192;-83
2022/10/16 09:53:57;;;;;;;6.70;4.20;;;;;;;21.66;50.38;95573.84;5105750;28;20200;-84
2022/10/16 09:56:26;;;;;;;7.50;5.00;;;;;;;22.39;49.23;95572.50;5106914;28;20204;-79
2022/10/16 09:58:53;;;;;;;8.88;4.68;;;;;;;22.90;50.73;95560.66;5090232;28;20295;-83
2022/10/16 10:01:21;;;;;;;8.45;4.25;;;;;;;23.49;50.74;95571.22;5109121;28;20200;-78
2022/10/16 10:03:49;;;;;;;5.43;3.63;;;;;;;23.98;50.19;95584.38;5107730;28;20247;-78
2022/10/16 10:06:26;;;;;;;5.40;4.30;;;;;;;24.48;44.84;95577.84;5107101;28;20287;-78
2022/10/16 10:09:02;;;;;;;8.40;4.30;;;;;;;25.02;45.15;95574.81;5108242;28;20196;-77
2022/10/16 10:11:41;;;;;;;6.88;3.95;;;;;;;25.52;42.48;95581.38;5108108;28;20210;-78
2022/10/16 10:14:16;;;;;;;7.65;3.90;;;;;;;25.75;45.84;95577.81;5106362;28;20202;-83
2022/10/16 10:16:43;;;;;;;7.32;4.45;;;;;;;26.00;39.58;95571.31;5110318;28;20244;-82
2022/10/16 10:19:15;;;;;;;7.82;4.53;;;;;;;26.20;43.22;95576.31;5110200;28;20282;-82
2022/10/16 10:21:43;;;;;;;7.95;3.88;;;;;;;26.46;43.42;95576.66;5110693;28;20212;-83
2022/10/16 10:24:12;;;;;;;7.22;4.03;;;;;;;26.65;38.19;95588.00;5110142;28;20207;-84
2022/10/16 10:26:42;;;;;;;5.35;4.15;;;;;;;26.94;39.21;95582.41;5110505;28;20229;-81
2022/10/16 10:29:18;;;;;;;7.82;4.00;;;;;;;26.74;36.76;95575.56;5110150;28;20192;-83
2022/10/16 10:31:53;;;;;;;7.50;3.88;;;;;;;27.05;37.04;95581.91;5110179;28;20199;-84
2022/10/16 10:34:35;;;;;;;5.63;3.63;;;;;;;27.21;38.58;95566.38;5109620;28;20203;-84
2022/10/16 10:37:13;;;;;;;8.30;3.40;;;;;;;27.49;39.22;95580.47;5107461;28;20572;-82
2022/10/16 10:39:50;;;;;;;7.28;4.20;;;;;;;27.76;35.46;95566.22;5106004;28;20250;-78
2022/10/16 10:42:26;;;;;;;6.32;3.95;;;;;;;27.99;33.60;95562.44;5107612;28;20203;-77
2022/10/16 10:45:04;;;;;;;5.15;4.18;;;;;;;28.10;35.34;95559.25;5107568;28;20287;-78
2022/10/16 10:47:43;;;;;;;6.68;4.00;;;;;;;28.42;34.47;95560.03;5107496;28;20251;-78
2022/10/16 10:50:21;;;;;;;4.40;3.58;;;;;;;28.46;35.40;95555.63;5105512;28;20192;-77
2022/10/16 10:53:01;;;;;;;4.40;3.42;;;;;;;28.84;33.78;95556.75;5107947;28;21486;-77
2022/10/16 10:55:38;;;;;;;6.30;4.00;;;;;;;29.02;32.45;95554.91;5108199;28;20243;-77
2022/10/16 10:58:21;;;;;;;4.90;3.58;;;;;;;28.90;32.75;95552.03;5106957;28;20225;-78
2022/10/16 11:00:58;;;;;;;5.57;4.22;;;;;;;28.91;32.76;95554.41;5107255;28;20200;-83
2022/10/16 11:03:47;;;;;;;6.47;4.05;;;;;;;28.99;31.77;95556.31;5108316;28;20638;-83
2022/10/16 11:06:19;;;;;;;5.32;3.85;;;;;;;28.97;31.98;95561.19;5108147;28;20203;-83
2022/10/16 11:08:52;;;;;;;6.70;4.18;;;;;;;29.16;31.39;95553.66;5110370;28;20212;-82
2022/10/16 11:11:25;;;;;;;5.28;3.95;;;;;;;29.31;32.83;95546.31;5109591;28;21170;-82
2022/10/16 11:13:57;;;;;;;4.82;3.75;;;;;;;29.55;31.34;95542.03;5108266;28;20651;-83
2022/10/16 11:16:29;;;;;;;5.30;3.60;;;;;;;29.70;31.03;95552.28;5107682;28;20220;-83
2022/10/16 11:19:00;;;;;;;4.57;3.55;;;;;;;29.45;30.86;95550.41;5106634;28;20203;-83
2022/10/16 11:21:30;;;;;;;4.40;3.47;;;;;;;29.60;29.97;95541.91;5107452;28;20200;-82
2022/10/16 11:24:02;;;;;;;4.05;3.50;;;;;;;29.71;31.57;95540.47;5106150;28;20203;-82
2022/10/16 11:26:34;;;;;;;4.13;3.45;;;;;;;29.58;29.62;95543.31;5108345;28;20204;-83
2022/10/16 11:29:04;;;;;;;5.53;3.92;;;;;;;29.15;30.88;95541.38;5105359;28;20208;-83
2022/10/16 11:31:37;;;;;;;6.95;3.60;;;;;;;29.28;31.49;95534.31;5108643;28;20211;-82